Time;durP1;ratioP1;P1;durP2;ratioP2;P2;SDS_P1;SDS_P2;PMS_P1;PMS_P2;Temp;Humidity;BMP_temperature;BMP_pressure;BME280_temperature;BME280_humidity;BME280_pressure;Samples;Min_cycle;Max_cycle;Signal;HPM_P1;HPM_P2
2023/06/08 00:01:25;;;;;;;6.23;4.60;;;;;;;23.54;57.17;100062.44;5027080;28;20199;-66
2023/06/08 00:03:52;;;;;;;5.10;3.77;;;;;;;23.54;57.28;100064.53;5024335;28;20176;-66
2023/06/08 00:06:20;;;;;;;7.10;3.50;;;;;;;23.52;57.20;100056.28;4997030;28;20443;-66
2023/06/08 00:08:46;;;;;;;4.97;3.73;;;;;;;23.52;56.79;100064.94;5028315;28;21031;-66
2023/06/08 00:11:12;;;;;;;4.30;3.63;;;;;;;23.52;56.95;100052.59;5028181;28;20406;-66
2023/06/08 00:13:37;;;;;;;5.33;3.50;;;;;;;23.53;56.90;100060.00;5027948;28;20172;-66
2023/06/08 00:16:04;;;;;;;5.30;4.40;;;;;;;23.52;57.36;100059.19;5017162;28;20730;-66
2023/06/08 00:18:30;;;;;;;6.03;3.87;;;;;;;23.51;56.98;100062.47;5015439;28;20204;-66
2023/06/08 00:20:56;;;;;;;5.77;4.40;;;;;;;23.50;57.16;100060.84;5023329;28;20919;-66
2023/06/08 00:23:22;;;;;;;5.83;4.20;;;;;;;23.49;57.04;100060.00;5026424;28;20928;-66
2023/06/08 00:25:48;;;;;;;6.30;3.67;;;;;;;23.49;57.34;100047.69;5042371;28;20444;-66
2023/06/08 00:28:13;;;;;;;4.60;4.00;;;;;;;23.50;57.03;100058.78;5012532;28;20600;-66
2023/06/08 00:30:39;;;;;;;4.50;3.50;;;;;;;23.49;57.11;100053.44;5007347;28;20173;-66
2023/06/08 00:33:04;;;;;;;4.77;3.90;;;;;;;23.49;56.93;100062.09;5008715;28;20161;-66
2023/06/08 00:35:30;;;;;;;4.97;3.80;;;;;;;23.48;56.92;100058.38;5025734;28;20157;-66
2023/06/08 00:37:56;;;;;;;5.30;4.10;;;;;;;23.48;57.27;100051.81;5007136;28;20189;-66
2023/06/08 00:40:21;;;;;;;6.03;3.70;;;;;;;23.47;57.15;100053.03;5017342;28;20196;-66
2023/06/08 00:42:47;;;;;;;6.37;4.20;;;;;;;23.48;56.96;100057.56;5025454;28;20648;-66
2023/06/08 00:45:12;;;;;;;5.30;4.30;;;;;;;23.46;56.99;100052.22;5023918;28;20934;-66
2023/06/08 00:47:38;;;;;;;6.00;3.90;;;;;;;23.45;56.71;100056.34;5008092;28;20169;-66
2023/06/08 00:50:07;;;;;;;4.90;4.10;;;;;;;23.46;57.04;100054.28;5019680;28;20169;-66
2023/06/08 00:52:32;;;;;;;6.20;4.03;;;;;;;23.45;56.92;100059.22;5023068;28;20184;-66
2023/06/08 00:55:00;;;;;;;4.30;3.73;;;;;;;23.45;57.01;100058.41;5009752;28;20737;-66
2023/06/08 00:57:28;;;;;;;7.63;3.60;;;;;;;23.43;56.79;100050.16;5019090;28;20192;-67
2023/06/08 00:59:53;;;;;;;4.37;3.57;;;;;;;23.43;56.86;100061.69;5007810;28;20463;-66
2023/06/08 01:02:19;;;;;;;5.40;4.00;;;;;;;23.44;56.86;100051.00;5011355;28;20431;-66
2023/06/08 01:04:45;;;;;;;4.57;3.70;;;;;;;23.43;57.33;100047.28;5027310;28;20243;-66
2023/06/08 01:07:40;;;;;;;4.53;3.70;;;;;;;23.42;56.90;100044.81;5022693;28;20234;-66
2023/06/08 01:10:12;;;;;;;6.00;3.57;;;;;;;23.42;56.77;100044.81;5026365;28;20489;-66
2023/06/08 01:12:41;;;;;;;5.10;3.47;;;;;;;23.41;56.76;100032.50;5026630;28;21304;-67
2023/06/08 01:15:42;;;;;;;4.70;3.80;;;;;;;23.41;56.82;100035.38;5023464;28;20507;-66
2023/06/08 01:18:08;;;;;;;6.70;3.93;;;;;;;23.40;57.00;100039.50;4953508;28;20444;-66
2023/06/08 01:21:06;;;;;;;7.13;3.90;;;;;;;23.39;56.82;100040.72;4999631;28;20467;-66
2023/06/08 01:23:34;;;;;;;4.90;4.07;;;;;;;23.40;56.92;100038.66;5008055;28;20241;-66
2023/06/08 01:26:00;;;;;;;5.57;4.13;;;;;;;23.39;56.44;100040.72;5007542;28;20483;-66
2023/06/08 01:28:28;;;;;;;4.60;3.50;;;;;;;23.39;56.79;100039.91;5006503;28;20953;-66
2023/06/08 01:30:54;;;;;;;4.60;3.70;;;;;;;23.37;56.28;100046.09;5014081;28;20442;-66
2023/06/08 01:33:21;;;;;;;5.37;4.20;;;;;;;23.37;56.57;100040.34;5027056;28;20473;-66
2023/06/08 01:36:02;;;;;;;5.00;3.70;;;;;;;23.37;56.45;100040.34;5023161;28;20185;-66
2023/06/08 01:38:34;;;;;;;4.67;3.50;;;;;;;23.37;56.62;100039.50;5005291;28;21100;-66
2023/06/08 01:41:02;;;;;;;5.77;3.93;;;;;;;23.36;56.56;100041.56;5006699;28;20462;-66
2023/06/08 01:43:27;;;;;;;6.73;4.90;;;;;;;23.35;56.86;100037.06;5001377;28;21049;-66
2023/06/08 01:45:55;;;;;;;4.43;3.73;;;;;;;23.36;56.68;100037.88;5013470;28;20451;-66
2023/06/08 01:48:21;;;;;;;4.23;3.47;;;;;;;23.37;57.12;100039.50;5027420;28;20260;-66
2023/06/08 01:50:46;;;;;;;5.80;4.33;;;;;;;23.36;56.45;100034.97;5029749;28;20843;-66
2023/06/08 01:53:12;;;;;;;4.37;3.70;;;;;;;23.36;56.59;100032.09;5029430;28;20620;-66
2023/06/08 01:55:37;;;;;;;5.40;4.23;;;;;;;23.36;56.89;100030.06;5016552;28;20197;-66
2023/06/08 01:58:03;;;;;;;3.93;3.37;;;;;;;23.36;56.70;100035.81;5015094;28;20169;-66
2023/06/08 02:00:29;;;;;;;4.70;3.80;;;;;;;23.34;56.69;100032.50;5037168;28;20209;-66
2023/06/08 02:02:54;;;;;;;4.63;4.13;;;;;;;23.34;56.93;100028.84;5011037;28;20183;-66
2023/06/08 02:05:20;;;;;;;4.40;3.93;;;;;;;23.33;57.02;100028.00;5028478;28;20415;-66
2023/06/08 02:07:45;;;;;;;6.47;3.77;;;;;;;23.34;56.76;100028.84;5014565;28;20176;-66
2023/06/08 02:10:11;;;;;;;6.13;3.97;;;;;;;23.33;56.70;100028.00;5010867;28;20215;-66
2023/06/08 02:12:37;;;;;;;5.30;3.90;;;;;;;23.34;56.71;100046.13;5009742;28;20165;-66
2023/06/08 02:15:03;;;;;;;4.70;3.80;;;;;;;23.32;56.58;100032.13;5014622;28;20596;-66
2023/06/08 02:17:33;;;;;;;5.40;4.20;;;;;;;23.32;56.29;100037.88;5026492;28;20184;-66
2023/06/08 02:20:00;;;;;;;4.73;4.20;;;;;;;23.32;56.39;100025.53;5030177;28;20458;-66
2023/06/08 02:22:27;;;;;;;5.17;3.70;;;;;;;23.31;56.73;100026.78;5013585;28;20939;-66
2023/06/08 02:24:52;;;;;;;4.67;3.73;;;;;;;23.31;56.77;100035.41;5010411;28;20424;-67
2023/06/08 02:27:18;;;;;;;6.43;4.37;;;;;;;23.31;56.63;100032.53;5011349;28;20911;-66
2023/06/08 02:29:43;;;;;;;3.93;3.20;;;;;;;23.31;56.89;100032.53;5019250;28;20497;-66
2023/06/08 02:32:09;;;;;;;5.87;3.90;;;;;;;23.30;56.71;100028.84;5028074;28;20176;-66
2023/06/08 02:34:36;;;;;;;4.37;3.20;;;;;;;23.30;56.61;100028.84;5024499;28;20195;-66
2023/06/08 02:37:01;;;;;;;7.50;3.93;;;;;;;23.30;56.54;100031.75;5010726;28;20180;-66
2023/06/08 02:39:27;;;;;;;5.10;3.50;;;;;;;23.30;56.62;100028.03;5028765;28;20411;-66
2023/06/08 02:41:52;;;;;;;5.50;4.13;;;;;;;23.30;56.48;100036.66;5027996;28;20956;-66
2023/06/08 02:44:18;;;;;;;5.90;4.37;;;;;;;23.30;56.36;100030.91;5010490;28;20204;-66
2023/06/08 02:46:43;;;;;;;4.93;4.10;;;;;;;23.28;56.39;100031.31;5009060;28;20192;-66
2023/06/08 02:49:09;;;;;;;4.70;3.90;;;;;;;23.28;56.65;100037.09;5016981;28;20188;-66
2023/06/08 02:51:35;;;;;;;4.40;3.53;;;;;;;23.27;56.64;100028.84;5007687;28;20173;-66
2023/06/08 02:54:01;;;;;;;4.27;3.50;;;;;;;23.27;56.83;100023.91;5011492;28;20287;-66
2023/06/08 02:56:26;;;;;;;5.10;3.97;;;;;;;23.27;56.49;100032.56;5028603;28;20934;-66
2023/06/08 02:58:52;;;;;;;5.00;4.10;;;;;;;23.26;56.45;100021.47;5027720;28;20172;-66
2023/06/08 03:01:18;;;;;;;5.30;4.03;;;;;;;23.27;56.14;100031.72;5023168;28;20339;-66
2023/06/08 03:03:44;;;;;;;4.80;3.70;;;;;;;23.26;56.50;100016.53;5029633;28;20188;-66
2023/06/08 03:06:09;;;;;;;8.30;3.90;;;;;;;23.26;56.83;100018.56;5022934;28;20247;-66
2023/06/08 03:08:39;;;;;;;6.67;4.07;;;;;;;23.25;56.46;100014.88;5008834;28;20166;-67
2023/06/08 03:11:04;;;;;;;4.90;3.77;;;;;;;23.25;56.55;100022.69;4992264;28;20173;-66
2023/06/08 03:13:30;;;;;;;5.43;3.90;;;;;;;23.25;56.64;100011.19;5009680;28;20404;-66
2023/06/08 03:15:55;;;;;;;6.80;3.60;;;;;;;23.24;56.25;100021.06;5009761;28;20243;-66
2023/06/08 03:18:22;;;;;;;5.57;3.90;;;;;;;23.24;56.45;100026.81;5009558;28;20180;-66
2023/06/08 03:20:51;;;;;;;4.57;3.60;;;;;;;23.24;56.74;100027.63;5009458;28;20319;-66
2023/06/08 03:23:20;;;;;;;4.30;3.50;;;;;;;23.24;56.54;100023.94;5018684;28;20756;-66
2023/06/08 03:25:49;;;;;;;4.30;3.10;;;;;;;23.23;56.31;100026.00;5027904;28;20418;-66
2023/06/08 03:28:15;;;;;;;4.43;3.83;;;;;;;23.24;56.16;100018.19;5006097;28;20558;-66
2023/06/08 03:30:41;;;;;;;4.70;3.97;;;;;;;23.22;56.44;100021.47;5026578;28;20464;-66
2023/06/08 03:33:06;;;;;;;5.63;4.00;;;;;;;23.22;56.21;100021.47;5009453;28;20443;-66
2023/06/08 03:35:32;;;;;;;5.37;3.10;;;;;;;23.22;56.59;100021.47;5023905;28;20199;-66
2023/06/08 03:37:57;;;;;;;4.63;3.80;;;;;;;23.22;56.47;100023.53;5009562;28;20203;-66
2023/06/08 03:40:23;;;;;;;4.40;3.63;;;;;;;23.22;56.33;100020.66;5008116;28;20196;-66
2023/06/08 03:42:50;;;;;;;4.33;3.80;;;;;;;23.21;56.18;100022.72;5016189;28;20212;-66
2023/06/08 03:45:16;;;;;;;6.97;4.33;;;;;;;23.20;56.19;100021.09;5024994;28;20192;-66
2023/06/08 03:47:42;;;;;;;4.70;3.67;;;;;;;23.20;56.48;100029.72;5008387;28;20424;-66
2023/06/08 03:50:08;;;;;;;4.60;3.80;;;;;;;23.21;56.45;100030.53;5008720;28;20524;-66
2023/06/08 03:52:33;;;;;;;5.40;4.50;;;;;;;23.21;56.60;100027.66;5011592;28;20188;-66
2023/06/08 03:54:59;;;;;;;4.67;3.90;;;;;;;23.21;56.43;100039.19;5010770;28;20192;-66
2023/06/08 03:57:24;;;;;;;4.20;3.73;;;;;;;23.19;56.13;100033.03;5009096;28;20168;-66
2023/06/08 03:59:50;;;;;;;6.60;3.97;;;;;;;23.19;56.39;100045.34;5015321;28;20676;-66
2023/06/08 04:02:15;;;;;;;6.17;4.13;;;;;;;23.19;56.29;100048.22;5015684;28;20947;-66
2023/06/08 04:04:44;;;;;;;5.50;4.00;;;;;;;23.20;56.19;100043.31;5023465;28;20259;-66
2023/06/08 04:07:10;;;;;;;4.87;4.30;;;;;;;23.19;56.35;100045.34;5017617;28;20176;-66
2023/06/08 04:09:36;;;;;;;5.57;4.53;;;;;;;23.19;56.49;100045.34;5023091;28;21119;-66
2023/06/08 04:12:01;;;;;;;4.43;3.50;;;;;;;23.18;56.57;100049.47;5026653;28;20750;-66
2023/06/08 04:14:26;;;;;;;5.00;3.93;;;;;;;23.20;56.38;100051.94;5025797;28;20212;-65
2023/06/08 04:16:52;;;;;;;5.10;3.93;;;;;;;23.19;56.15;100044.53;5014550;28;20197;-66
2023/06/08 04:19:17;;;;;;;4.53;3.80;;;;;;;23.17;56.54;100039.16;5010125;28;20169;-66
2023/06/08 04:21:43;;;;;;;6.97;3.80;;;;;;;23.18;56.32;100037.16;5009235;28;20205;-66
2023/06/08 04:24:08;;;;;;;5.40;3.83;;;;;;;23.18;56.31;100040.84;5009476;28;20169;-66
2023/06/08 04:26:34;;;;;;;4.70;3.60;;;;;;;23.18;56.25;100037.16;5027689;28;20303;-66
2023/06/08 04:29:00;;;;;;;4.53;3.90;;;;;;;23.18;56.14;100037.16;5015586;28;20199;-66
2023/06/08 04:31:26;;;;;;;5.90;4.47;;;;;;;23.17;56.43;100036.28;5007370;28;20528;-66
2023/06/08 04:33:51;;;;;;;4.87;3.90;;;;;;;23.16;56.40;100026.00;4996576;28;20440;-65
2023/06/08 04:36:17;;;;;;;4.60;3.97;;;;;;;23.16;56.82;100040.41;5033985;28;20542;-65
2023/06/08 04:38:42;;;;;;;5.50;4.27;;;;;;;23.16;56.30;100033.81;5028237;28;20156;-65
2023/06/08 04:41:08;;;;;;;4.87;4.00;;;;;;;23.16;56.37;100040.41;5013876;28;20215;-66
2023/06/08 04:43:34;;;;;;;5.77;4.10;;;;;;;23.15;56.22;100038.78;5026806;28;20679;-65
2023/06/08 04:46:04;;;;;;;6.20;4.30;;;;;;;23.16;56.50;100040.41;5026676;28;20163;-65
2023/06/08 04:48:30;;;;;;;5.23;4.50;;;;;;;23.15;56.41;100041.66;5025860;28;20450;-66
2023/06/08 04:51:02;;;;;;;5.10;3.97;;;;;;;23.16;56.65;100045.34;5027409;28;20803;-66
2023/06/08 04:53:30;;;;;;;5.50;4.00;;;;;;;23.15;56.77;100053.19;5026595;28;20172;-66
2023/06/08 04:55:57;;;;;;;4.70;3.70;;;;;;;23.15;57.26;100049.47;5024444;28;20431;-66
2023/06/08 04:58:26;;;;;;;5.90;4.20;;;;;;;23.15;56.62;100052.34;5025859;28;20949;-66
2023/06/08 05:00:52;;;;;;;5.43;3.70;;;;;;;23.15;56.69;100056.06;5005256;28;20820;-65
2023/06/08 05:03:18;;;;;;;5.13;3.90;;;;;;;23.15;56.54;100050.31;5027087;28;20462;-65
2023/06/08 05:05:44;;;;;;;5.57;3.70;;;;;;;23.14;56.70;100051.50;5027032;28;20503;-65
2023/06/08 05:08:09;;;;;;;6.07;4.70;;;;;;;23.13;56.54;100051.97;5013524;28;21158;-66
2023/06/08 05:10:35;;;;;;;5.40;4.43;;;;;;;23.13;56.45;100058.53;5011753;28;20231;-66
2023/06/08 05:13:01;;;;;;;6.80;5.00;;;;;;;23.13;56.82;100064.28;5025816;28;20180;-65
2023/06/08 05:15:26;;;;;;;5.80;4.47;;;;;;;23.14;56.99;100065.13;5026175;28;20216;-66
2023/06/08 05:17:52;;;;;;;6.10;4.50;;;;;;;23.13;56.54;100058.53;5026157;28;20420;-65
2023/06/08 05:20:18;;;;;;;5.40;4.60;;;;;;;23.13;56.63;100058.53;5022314;28;20303;-66
2023/06/08 05:22:44;;;;;;;6.10;4.97;;;;;;;23.13;56.43;100058.53;5026471;28;20670;-66
2023/06/08 05:25:10;;;;;;;5.93;4.20;;;;;;;23.13;57.02;100061.41;5024916;28;20439;-65
2023/06/08 05:27:35;;;;;;;6.10;5.13;;;;;;;23.12;56.63;100056.06;5011679;28;20184;-65
2023/06/08 05:30:01;;;;;;;4.97;4.37;;;;;;;23.11;56.82;100061.00;5026442;28;20684;-65
2023/06/08 05:32:26;;;;;;;6.03;5.00;;;;;;;23.13;56.58;100066.34;5010577;28;20223;-66
2023/06/08 05:34:51;;;;;;;5.60;5.00;;;;;;;23.13;56.78;100075.00;5016638;28;20652;-66
2023/06/08 05:37:17;;;;;;;4.90;4.20;;;;;;;23.13;57.04;100072.13;5009582;28;20581;-66
2023/06/08 05:39:42;;;;;;;5.60;4.80;;;;;;;23.13;56.73;100070.03;5010419;28;20912;-66
2023/06/08 05:42:08;;;;;;;5.53;4.83;;;;;;;23.12;56.94;100076.22;5013484;28;20176;-66
2023/06/08 05:44:33;;;;;;;5.43;4.67;;;;;;;23.13;57.08;100077.88;5015161;28;20610;-66
2023/06/08 05:46:59;;;;;;;6.00;4.67;;;;;;;23.13;57.06;100066.34;4977131;28;20197;-66
2023/06/08 05:49:24;;;;;;;6.93;4.03;;;;;;;23.12;57.35;100074.16;4993846;28;20165;-66
2023/06/08 05:51:50;;;;;;;5.73;4.50;;;;;;;23.12;57.02;100071.28;5011088;28;20166;-66
2023/06/08 05:54:15;;;;;;;7.53;5.03;;;;;;;23.13;57.06;100070.03;5013043;28;20189;-66
2023/06/08 05:56:41;;;;;;;5.90;4.87;;;;;;;23.12;57.12;100071.28;5026311;28;20177;-66
2023/06/08 05:59:06;;;;;;;6.27;5.00;;;;;;;23.12;56.71;100074.16;5025204;28;20205;-66
2023/06/08 06:01:32;;;;;;;6.43;5.37;;;;;;;23.12;56.81;100067.56;5026686;28;20213;-66
2023/06/08 06:03:57;;;;;;;6.03;5.17;;;;;;;23.12;56.66;100064.69;5030092;28;20183;-66
2023/06/08 06:06:23;;;;;;;6.17;4.80;;;;;;;23.14;57.00;100070.88;5029423;28;20557;-66
2023/06/08 06:08:48;;;;;;;7.00;5.67;;;;;;;23.15;57.12;100072.50;5020661;28;20204;-66
2023/06/08 06:11:14;;;;;;;6.80;5.37;;;;;;;23.14;56.67;100070.88;5014392;28;20184;-66
2023/06/08 06:13:39;;;;;;;6.57;5.40;;;;;;;23.13;57.05;100070.03;5025101;28;20180;-66
2023/06/08 06:16:05;;;;;;;7.37;5.23;;;;;;;23.14;57.08;100076.63;5022292;28;20228;-66
2023/06/08 06:18:31;;;;;;;7.00;5.80;;;;;;;23.14;57.04;100076.63;5029590;28;20238;-66
2023/06/08 06:20:56;;;;;;;7.33;5.20;;;;;;;23.15;56.89;100075.38;5000389;28;20197;-66
2023/06/08 06:23:21;;;;;;;7.00;5.47;;;;;;;23.14;57.06;100068.00;5012558;28;20712;-66
2023/06/08 06:25:47;;;;;;;7.20;5.30;;;;;;;23.14;57.40;100065.91;5010407;28;20592;-66
2023/06/08 06:28:12;;;;;;;7.77;4.83;;;;;;;23.15;57.15;100070.47;5017186;28;20185;-66
2023/06/08 06:30:38;;;;;;;7.10;6.00;;;;;;;23.14;57.10;100073.75;5014901;28;20181;-67
2023/06/08 06:33:03;;;;;;;5.83;5.17;;;;;;;23.14;57.15;100070.88;5028243;28;20197;-67
2023/06/08 06:35:29;;;;;;;5.60;4.83;;;;;;;23.13;57.05;100080.75;5027940;28;20192;-67
2023/06/08 06:37:55;;;;;;;9.73;6.27;;;;;;;23.12;57.37;100085.69;5028595;28;20169;-67
2023/06/08 06:40:21;;;;;;;6.50;5.17;;;;;;;23.12;57.51;100079.94;5022572;28;20327;-67
2023/06/08 06:42:47;;;;;;;6.10;5.07;;;;;;;23.12;57.33;100081.97;5025043;28;20469;-67
2023/06/08 06:45:12;;;;;;;7.10;5.63;;;;;;;23.12;56.99;100085.69;5028145;28;20207;-67
2023/06/08 06:47:38;;;;;;;6.27;4.93;;;;;;;23.12;57.43;100082.81;5012919;28;20636;-67
2023/06/08 06:50:06;;;;;;;9.93;5.07;;;;;;;23.15;57.88;100086.91;5016027;28;20185;-67
2023/06/08 06:52:32;;;;;;;6.20;5.60;;;;;;;23.14;57.87;100086.06;5016651;28;20440;-67
2023/06/08 06:54:58;;;;;;;8.40;5.50;;;;;;;23.15;57.80;100090.63;5019703;28;20440;-67
2023/06/08 06:57:23;;;;;;;6.10;5.20;;;;;;;23.15;57.72;100084.88;5038996;28;20208;-67
2023/06/08 06:59:50;;;;;;;7.83;5.67;;;;;;;23.15;57.59;100084.88;5032169;28;20469;-67
2023/06/08 07:02:15;;;;;;;7.00;5.03;;;;;;;23.15;58.18;100081.97;5027417;28;20168;-67
2023/06/08 07:04:41;;;;;;;6.30;5.27;;;;;;;23.13;57.99;100081.56;5021266;28;20596;-66
2023/06/08 07:07:07;;;;;;;6.20;5.27;;;;;;;23.13;57.55;100086.53;5020986;28;20189;-67
2023/06/08 07:09:32;;;;;;;6.40;5.40;;;;;;;23.14;58.05;100077.44;5023866;28;20246;-67
2023/06/08 07:11:58;;;;;;;5.60;4.80;;;;;;;23.16;57.87;100079.91;5023975;28;20185;-67
2023/06/08 07:14:24;;;;;;;7.40;5.30;;;;;;;23.15;57.88;100081.16;5020723;28;20216;-67
2023/06/08 07:16:50;;;;;;;5.70;5.10;;;;;;;23.15;57.64;100075.38;5022106;28;20193;-67
2023/06/08 07:19:15;;;;;;;6.13;5.27;;;;;;;23.16;57.60;100068.38;5030779;28;20423;-67
2023/06/08 07:21:41;;;;;;;6.40;4.80;;;;;;;23.13;57.82;100081.56;5023467;28;20610;-67
2023/06/08 07:24:07;;;;;;;7.47;5.33;;;;;;;23.14;57.68;100079.50;5020755;28;20548;-67
2023/06/08 07:26:32;;;;;;;6.37;5.37;;;;;;;23.16;57.31;100085.66;5024694;28;20216;-67
2023/06/08 07:28:58;;;;;;;7.00;5.60;;;;;;;23.14;57.68;100083.19;5023004;28;20180;-67
2023/06/08 07:31:24;;;;;;;6.17;5.30;;;;;;;23.16;57.49;100089.38;5019637;28;20193;-66
2023/06/08 07:33:51;;;;;;;6.67;5.40;;;;;;;23.15;57.52;100087.75;5021004;28;20182;-66
2023/06/08 07:36:16;;;;;;;9.20;5.90;;;;;;;23.15;57.91;100081.97;5025076;28;20489;-67
2023/06/08 07:38:42;;;;;;;6.80;6.10;;;;;;;23.16;57.70;100083.63;5022747;28;20902;-67
2023/06/08 07:41:07;;;;;;;6.97;5.20;;;;;;;23.15;57.50;100079.09;5020584;28;20689;-67
2023/06/08 07:43:32;;;;;;;8.07;5.40;;;;;;;23.14;57.51;100074.56;5029511;28;20226;-67
2023/06/08 07:45:58;;;;;;;6.13;5.53;;;;;;;23.14;57.72;100077.44;5025805;28;20181;-66
2023/06/08 07:48:23;;;;;;;6.43;5.20;;;;;;;23.15;57.64;100072.50;5038377;28;20183;-66
2023/06/08 07:50:49;;;;;;;7.37;5.80;;;;;;;23.14;57.99;100071.69;5025068;28;20173;-67
2023/06/08 07:53:15;;;;;;;6.13;5.07;;;;;;;23.14;57.64;100071.69;5019710;28;20177;-67
2023/06/08 07:55:41;;;;;;;8.20;5.50;;;;;;;23.13;57.96;100067.16;5015386;28;20189;-67
2023/06/08 07:58:06;;;;;;;6.13;5.10;;;;;;;23.12;58.08;100068.41;5022877;28;20767;-67
2023/06/08 08:00:32;;;;;;;6.40;5.20;;;;;;;23.13;57.45;100063.47;5020077;28;20201;-67
2023/06/08 08:02:57;;;;;;;6.67;5.20;;;;;;;23.14;57.80;100059.34;5030680;28;20188;-67
2023/06/08 08:05:23;;;;;;;6.50;5.10;;;;;;;23.14;57.49;100051.50;5021613;28;20171;-66
2023/06/08 08:07:48;;;;;;;8.60;5.47;;;;;;;23.13;57.27;100052.75;5022085;28;20211;-66
2023/06/08 08:10:14;;;;;;;7.27;5.17;;;;;;;23.18;56.83;100055.22;5046225;28;20200;-67
2023/06/08 08:12:39;;;;;;;15.80;5.47;;;;;;;23.24;57.96;100056.44;5043820;28;20161;-68
2023/06/08 08:15:05;;;;;;;10.73;5.43;;;;;;;23.25;58.44;100051.50;5042828;28;20216;-66
2023/06/08 08:17:31;;;;;;;15.43;5.63;;;;;;;23.25;58.86;100043.69;5033109;28;20181;-67
2023/06/08 08:19:56;;;;;;;6.07;4.87;;;;;;;23.33;58.79;100045.28;5026198;28;20852;-66
2023/06/08 08:22:22;;;;;;;8.93;6.10;;;;;;;23.49;59.84;100045.59;5019061;28;20180;-64
2023/06/08 08:24:47;;;;;;;10.60;6.17;;;;;;;23.48;59.64;100051.81;5011475;28;20172;-66
2023/06/08 08:27:13;;;;;;;9.30;5.60;;;;;;;23.47;59.00;100045.22;5021051;28;20191;-67
2023/06/08 08:29:39;;;;;;;9.33;6.23;;;;;;;23.52;58.52;100041.88;5002528;28;20678;-66
2023/06/08 08:32:06;;;;;;;9.47;5.53;;;;;;;23.54;58.08;100047.25;5022581;28;20181;-66
2023/06/08 08:34:31;;;;;;;9.80;5.47;;;;;;;23.52;57.94;100047.66;5030971;28;20442;-66
2023/06/08 08:36:56;;;;;;;5.90;4.23;;;;;;;23.55;57.47;100046.81;5022212;28;20483;-65
2023/06/08 08:39:22;;;;;;;9.57;5.53;;;;;;;23.57;57.41;100040.59;5028372;28;20185;-66
2023/06/08 08:41:52;;;;;;;9.33;4.93;;;;;;;23.54;57.73;100042.28;4998174;28;20201;-65
2023/06/08 08:44:17;;;;;;;5.77;4.53;;;;;;;23.56;57.38;100047.63;5003455;28;20188;-67
2023/06/08 08:46:43;;;;;;;7.53;4.83;;;;;;;23.53;57.30;100037.75;5019526;28;20432;-66
2023/06/08 08:49:17;;;;;;;7.80;5.73;;;;;;;23.49;57.32;100036.94;5034697;28;20173;-66
2023/06/08 08:51:52;;;;;;;6.10;4.50;;;;;;;23.50;57.13;100032.03;5026560;28;20185;-66
2023/06/08 08:54:17;;;;;;;9.40;4.50;;;;;;;23.47;56.74;100039.44;5038953;28;20477;-66
2023/06/08 08:56:43;;;;;;;6.97;4.07;;;;;;;23.49;56.35;100036.94;5032135;28;20803;-66
2023/06/08 08:59:09;;;;;;;9.03;4.93;;;;;;;23.49;56.35;100019.66;5023838;28;20205;-66
2023/06/08 09:01:34;;;;;;;7.73;5.07;;;;;;;23.51;56.44;100025.84;5021644;28;20211;-66
2023/06/08 09:04:01;;;;;;;8.77;4.93;;;;;;;23.52;56.02;100021.72;5032266;28;20207;-66
2023/06/08 09:06:28;;;;;;;5.30;4.10;;;;;;;23.55;55.79;100017.16;5033037;28;20192;-66
2023/06/08 09:08:53;;;;;;;6.67;3.97;;;;;;;23.56;56.33;100022.50;5010155;28;20447;-66
2023/06/08 09:11:19;;;;;;;5.80;4.60;;;;;;;23.56;55.91;100011.00;5020399;28;20458;-67
2023/06/08 09:13:44;;;;;;;5.33;4.20;;;;;;;23.59;55.60;100013.00;5016748;28;20192;-67
2023/06/08 09:16:17;;;;;;;6.10;3.60;;;;;;;23.59;55.88;100017.97;5024243;28;20232;-67
2023/06/08 09:19:05;;;;;;;5.70;4.47;;;;;;;23.61;55.41;100009.72;4996983;28;20284;-67
2023/06/08 09:21:32;;;;;;;6.80;4.50;;;;;;;23.61;55.37;100006.81;5023391;28;21036;-67
2023/06/08 09:24:14;;;;;;;7.20;4.40;;;;;;;23.58;55.46;100005.59;5029224;28;20453;-66
2023/06/08 09:26:47;;;;;;;6.97;4.17;;;;;;;23.63;55.00;99999.41;5029168;28;20434;-66
2023/06/08 09:29:31;;;;;;;13.60;6.93;;;;;;;23.72;56.55;100010.44;5018108;28;20430;-65
2023/06/08 09:31:59;;;;;;;10.07;6.53;;;;;;;23.75;56.61;100004.69;5021261;28;21183;-65
2023/06/08 09:34:25;;;;;;;12.47;6.30;;;;;;;23.76;57.38;100000.53;5024154;28;20467;-65
2023/06/08 09:36:52;;;;;;;12.13;6.57;;;;;;;23.77;57.68;100001.34;5013639;28;20450;-65
2023/06/08 09:39:17;;;;;;;9.97;6.23;;;;;;;23.82;56.84;99995.97;5024307;28;20271;-66
2023/06/08 09:41:54;;;;;;;12.23;6.70;;;;;;;23.84;56.95;99986.91;5001372;28;20479;-66
2023/06/08 09:44:20;;;;;;;11.23;7.07;;;;;;;23.84;57.34;99984.81;5018288;28;20234;-65
2023/06/08 09:46:45;;;;;;;12.00;6.50;;;;;;;23.82;57.69;99990.19;5035345;28;20443;-66
2023/06/08 09:49:13;;;;;;;11.23;5.73;;;;;;;23.84;56.15;99986.91;5012627;28;20236;-66
2023/06/08 09:51:39;;;;;;;17.53;6.30;;;;;;;23.88;55.77;99979.84;5016863;28;20624;-67
2023/06/08 09:54:05;;;;;;;7.77;4.53;;;;;;;23.92;54.91;99992.19;5020515;28;20443;-67
2023/06/08 09:56:31;;;;;;;8.93;5.27;;;;;;;23.89;54.44;99987.28;5021946;28;20494;-66
2023/06/08 09:59:00;;;;;;;7.93;5.70;;;;;;;23.88;54.53;99979.84;5021527;28;20424;-66
2023/06/08 10:01:31;;;;;;;8.10;5.30;;;;;;;23.91;54.17;99973.25;5019991;28;20217;-66
2023/06/08 10:03:57;;;;;;;9.53;5.30;;;;;;;23.92;53.84;99974.06;5022999;28;20465;-66
2023/06/08 10:06:23;;;;;;;9.53;5.63;;;;;;;23.90;53.97;99970.81;5013596;28;20435;-66
2023/06/08 10:08:48;;;;;;;8.60;5.43;;;;;;;23.91;53.71;99973.25;5002823;28;20506;-66
2023/06/08 10:11:14;;;;;;;8.27;4.83;;;;;;;23.89;54.05;99969.16;5034037;28;20185;-67
2023/06/08 10:13:39;;;;;;;16.53;4.47;;;;;;;23.90;53.86;99965.88;5032044;28;20189;-67
2023/06/08 10:16:05;;;;;;;12.47;5.40;;;;;;;23.91;53.58;99964.63;5018678;28;20230;-67
2023/06/08 10:18:31;;;;;;;8.73;4.93;;;;;;;23.94;53.04;99957.19;5021914;28;20202;-66
2023/06/08 10:20:57;;;;;;;9.90;4.50;;;;;;;23.89;52.70;99958.44;5020680;28;20219;-67
2023/06/08 10:23:22;;;;;;;9.80;4.90;;;;;;;23.88;52.78;99951.00;5027178;28;20181;-67
2023/06/08 10:25:50;;;;;;;6.40;4.53;;;;;;;23.90;52.87;99953.50;5043041;28;20442;-66
2023/06/08 10:28:20;;;;;;;10.30;5.00;;;;;;;23.89;53.00;99951.88;5034205;28;20193;-67
2023/06/08 10:30:45;;;;;;;6.50;4.80;;;;;;;23.89;52.53;99952.66;5036879;28;20422;-66
2023/06/08 10:33:15;;;;;;;5.93;4.60;;;;;;;23.93;52.09;99947.69;5050182;28;20440;-66
2023/06/08 10:35:41;;;;;;;10.50;5.27;;;;;;;23.87;53.83;99942.78;5040045;28;20372;-66
2023/06/08 10:38:13;;;;;;;10.57;4.53;;;;;;;23.94;52.66;99940.66;5038386;28;20460;-65
2023/06/08 10:40:50;;;;;;;8.13;4.93;;;;;;;23.93;53.19;99944.00;5034060;28;20272;-66
2023/06/08 10:43:16;;;;;;;15.97;5.70;;;;;;;23.94;53.10;99931.22;5021045;28;20455;-67
2023/06/08 10:45:43;;;;;;;10.77;4.60;;;;;;;23.92;52.79;99937.41;5048322;28;20424;-65
2023/06/08 10:48:10;;;;;;;8.40;4.93;;;;;;;24.01;53.60;99934.03;5049035;28;20209;-65
2023/06/08 10:50:37;;;;;;;9.83;4.70;;;;;;;24.01;54.07;99934.03;5040146;28;20464;-66
2023/06/08 10:53:03;;;;;;;8.23;4.50;;;;;;;24.04;52.85;99933.97;5046647;28;20424;-66
2023/06/08 10:55:28;;;;;;;10.53;5.10;;;;;;;24.03;53.11;99922.91;5015165;28;20444;-66
2023/06/08 10:57:54;;;;;;;7.63;4.40;;;;;;;23.99;53.52;99928.69;5038710;28;20201;-66
2023/06/08 11:00:27;;;;;;;7.57;4.47;;;;;;;24.01;52.92;99929.09;5036306;28;20200;-66
2023/06/08 11:02:53;;;;;;;11.10;4.83;;;;;;;23.98;52.41;99915.50;5029857;28;20228;-65
2023/06/08 11:05:23;;;;;;;6.33;4.30;;;;;;;23.97;53.99;99918.81;5025074;28;21319;-65
2023/06/08 11:07:48;;;;;;;7.70;4.83;;;;;;;24.02;54.50;99924.13;5039215;28;20442;-65
2023/06/08 11:10:14;;;;;;;8.50;5.40;;;;;;;24.00;55.16;99917.97;5013103;28;20456;-65
2023/06/08 11:12:39;;;;;;;8.13;4.60;;;;;;;24.01;54.26;99917.56;5033270;28;20240;-66
2023/06/08 11:15:05;;;;;;;13.33;4.43;;;;;;;24.00;55.05;99915.09;5020661;28;20220;-63
2023/06/08 11:17:34;;;;;;;9.10;5.03;;;;;;;24.09;55.52;99921.97;5033070;28;20196;-65
2023/06/08 11:20:06;;;;;;;8.37;4.50;;;;;;;24.04;55.94;99915.88;5026399;28;20435;-65
2023/06/08 11:22:32;;;;;;;6.83;4.63;;;;;;;24.04;55.97;99910.91;5034049;28;20508;-64
2023/06/08 11:24:57;;;;;;;6.37;4.70;;;;;;;24.05;56.66;99911.75;5030847;28;20432;-65